sensor_id;sensor_type;location;lat;lon;timestamp;P1;durP1;ratioP1;P2;durP2;ratioP2
44214;SDS011;29884;47.450;19.124;2022-09-02T00:01:35;0.63;;;0.20;;
44214;SDS011;29884;47.450;19.124;2022-09-02T00:04:07;0.40;;;0.20;;
44214;SDS011;29884;47.450;19.124;2022-09-02T00:06:41;0.40;;;0.30;;
44214;SDS011;29884;47.450;19.124;2022-09-02T00:09:08;0.52;;;0.25;;
44214;SDS011;29884;47.450;19.124;2022-09-02T00:11:36;0.30;;;0.20;;
44214;SDS011;29884;47.450;19.124;2022-09-02T00:14:03;0.40;;;0.20;;
44214;SDS011;29884;47.450;19.124;2022-09-02T00:16:31;0.32;;;0.20;;
44214;SDS011;29884;47.450;19.124;2022-09-02T00:18:57;1.50;;;0.20;;
44214;SDS011;29884;47.450;19.124;2022-09-02T00:21:24;1.40;;;0.30;;
44214;SDS011;29884;47.450;19.124;2022-09-02T00:23:50;1.63;;;0.20;;
44214;SDS011;29884;47.450;19.124;2022-09-02T00:26:16;1.90;;;0.20;;
44214;SDS011;29884;47.450;19.124;2022-09-02T00:28:42;6.57;;;0.30;;
44214;SDS011;29884;47.450;19.124;2022-09-02T00:31:10;0.90;;;0.20;;
44214;SDS011;29884;47.450;19.124;2022-09-02T00:33:37;0.40;;;0.20;;
44214;SDS011;29884;47.450;19.124;2022-09-02T00:36:03;3.40;;;0.20;;
44214;SDS011;29884;47.450;19.124;2022-09-02T00:38:30;1.40;;;0.20;;
44214;SDS011;29884;47.450;19.124;2022-09-02T00:41:01;1.08;;;0.20;;
44214;SDS011;29884;47.450;19.124;2022-09-02T00:46:33;0.47;;;0.20;;
44214;SDS011;29884;47.450;19.124;2022-09-02T00:49:04;0.80;;;0.22;;
44214;SDS011;29884;47.450;19.124;2022-09-02T00:51:33;2.50;;;0.20;;
44214;SDS011;29884;47.450;19.124;2022-09-02T00:54:05;1.73;;;0.20;;
44214;SDS011;29884;47.450;19.124;2022-09-02T00:56:31;0.70;;;0.20;;
44214;SDS011;29884;47.450;19.124;2022-09-02T00:59:00;0.50;;;0.20;;
44214;SDS011;29884;47.450;19.124;2022-09-02T01:01:26;0.85;;;0.20;;
44214;SDS011;29884;47.450;19.124;2022-09-02T01:03:52;0.60;;;0.20;;
44214;SDS011;29884;47.450;19.124;2022-09-02T01:06:23;2.30;;;0.20;;
44214;SDS011;29884;47.450;19.124;2022-09-02T01:08:52;0.68;;;0.20;;
44214;SDS011;29884;47.450;19.124;2022-09-02T01:11:22;0.52;;;0.17;;
44214;SDS011;29884;47.450;19.124;2022-09-02T01:13:51;0.57;;;0.20;;
44214;SDS011;29884;47.450;19.124;2022-09-02T01:16:24;0.40;;;0.20;;
44214;SDS011;29884;47.450;19.124;2022-09-02T01:18:55;0.43;;;0.20;;
44214;SDS011;29884;47.450;19.124;2022-09-02T01:21:24;0.50;;;0.13;;
44214;SDS011;29884;47.450;19.124;2022-09-02T01:23:52;0.30;;;0.20;;
44214;SDS011;29884;47.450;19.124;2022-09-02T01:26:18;0.30;;;0.20;;
44214;SDS011;29884;47.450;19.124;2022-09-02T01:28:44;0.50;;;0.20;;
44214;SDS011;29884;47.450;19.124;2022-09-02T01:31:10;1.17;;;0.17;;
44214;SDS011;29884;47.450;19.124;2022-09-02T01:33:36;0.68;;;0.20;;
44214;SDS011;29884;47.450;19.124;2022-09-02T01:36:02;0.35;;;0.10;;
44214;SDS011;29884;47.450;19.124;2022-09-02T01:38:28;0.82;;;0.20;;
44214;SDS011;29884;47.450;19.124;2022-09-02T01:40:55;0.32;;;0.17;;
44214;SDS011;29884;47.450;19.124;2022-09-02T01:43:22;0.93;;;0.20;;
44214;SDS011;29884;47.450;19.124;2022-09-02T01:45:51;1.45;;;0.13;;
44214;SDS011;29884;47.450;19.124;2022-09-02T01:48:18;1.67;;;0.20;;
44214;SDS011;29884;47.450;19.124;2022-09-02T01:50:47;2.05;;;0.20;;
44214;SDS011;29884;47.450;19.124;2022-09-02T01:53:15;0.50;;;0.20;;
44214;SDS011;29884;47.450;19.124;2022-09-02T01:55:41;0.45;;;0.20;;
44214;SDS011;29884;47.450;19.124;2022-09-02T01:58:07;0.30;;;0.10;;
44214;SDS011;29884;47.450;19.124;2022-09-02T02:00:32;0.63;;;0.20;;
44214;SDS011;29884;47.450;19.124;2022-09-02T02:02:59;0.50;;;0.20;;
44214;SDS011;29884;47.450;19.124;2022-09-02T02:05:25;0.60;;;0.20;;
44214;SDS011;29884;47.450;19.124;2022-09-02T02:07:50;0.75;;;0.10;;
44214;SDS011;29884;47.450;19.124;2022-09-02T02:10:17;0.40;;;0.20;;
44214;SDS011;29884;47.450;19.124;2022-09-02T02:12:44;0.75;;;0.20;;
44214;SDS011;29884;47.450;19.124;2022-09-02T02:15:12;1.50;;;0.20;;
44214;SDS011;29884;47.450;19.124;2022-09-02T02:17:40;0.28;;;0.20;;
44214;SDS011;29884;47.450;19.124;2022-09-02T02:20:07;1.65;;;0.20;;
44214;SDS011;29884;47.450;19.124;2022-09-02T02:22:34;1.27;;;0.13;;
44214;SDS011;29884;47.450;19.124;2022-09-02T02:25:01;1.10;;;0.15;;
44214;SDS011;29884;47.450;19.124;2022-09-02T02:27:28;0.38;;;0.15;;
44214;SDS011;29884;47.450;19.124;2022-09-02T02:29:53;1.40;;;0.30;;
44214;SDS011;29884;47.450;19.124;2022-09-02T02:32:19;1.25;;;0.30;;
44214;SDS011;29884;47.450;19.124;2022-09-02T02:34:45;0.47;;;0.17;;
44214;SDS011;29884;47.450;19.124;2022-09-02T02:37:11;2.05;;;0.20;;
44214;SDS011;29884;47.450;19.124;2022-09-02T02:39:40;1.48;;;0.20;;
44214;SDS011;29884;47.450;19.124;2022-09-02T02:42:06;0.80;;;0.20;;
44214;SDS011;29884;47.450;19.124;2022-09-02T02:44:32;0.88;;;0.20;;
44214;SDS011;29884;47.450;19.124;2022-09-02T02:46:59;0.77;;;0.20;;
44214;SDS011;29884;47.450;19.124;2022-09-02T02:49:25;1.60;;;0.50;;
44214;SDS011;29884;47.450;19.124;2022-09-02T02:51:52;0.63;;;0.20;;
44214;SDS011;29884;47.450;19.124;2022-09-02T02:54:18;1.60;;;0.20;;
44214;SDS011;29884;47.450;19.124;2022-09-02T02:56:44;1.35;;;0.20;;
44214;SDS011;29884;47.450;19.124;2022-09-02T02:59:10;4.82;;;0.20;;
44214;SDS011;29884;47.450;19.124;2022-09-02T03:01:36;1.98;;;0.20;;
44214;SDS011;29884;47.450;19.124;2022-09-02T03:04:03;0.22;;;0.10;;
44214;SDS011;29884;47.450;19.124;2022-09-02T03:06:29;1.85;;;0.20;;
44214;SDS011;29884;47.450;19.124;2022-09-02T03:08:55;1.02;;;0.20;;
44214;SDS011;29884;47.450;19.124;2022-09-02T03:11:22;0.40;;;0.20;;
44214;SDS011;29884;47.450;19.124;2022-09-02T03:13:52;1.88;;;0.20;;
44214;SDS011;29884;47.450;19.124;2022-09-02T03:16:18;0.90;;;0.20;;
44214;SDS011;29884;47.450;19.124;2022-09-02T03:18:45;0.38;;;0.20;;
44214;SDS011;29884;47.450;19.124;2022-09-02T03:21:12;0.95;;;0.30;;
44214;SDS011;29884;47.450;19.124;2022-09-02T03:23:40;0.30;;;0.20;;
44214;SDS011;29884;47.450;19.124;2022-09-02T03:26:10;0.73;;;0.15;;
44214;SDS011;29884;47.450;19.124;2022-09-02T03:28:38;0.55;;;0.20;;
44214;SDS011;29884;47.450;19.124;2022-09-02T03:31:04;1.00;;;0.20;;
44214;SDS011;29884;47.450;19.124;2022-09-02T03:33:30;0.60;;;0.20;;
44214;SDS011;29884;47.450;19.124;2022-09-02T03:35:56;0.32;;;0.10;;
44214;SDS011;29884;47.450;19.124;2022-09-02T03:38:22;0.68;;;0.20;;
44214;SDS011;29884;47.450;19.124;2022-09-02T03:40:48;0.30;;;0.10;;
44214;SDS011;29884;47.450;19.124;2022-09-02T03:43:14;0.47;;;0.30;;
44214;SDS011;29884;47.450;19.124;2022-09-02T03:45:41;1.02;;;0.20;;
44214;SDS011;29884;47.450;19.124;2022-09-02T03:48:11;1.50;;;0.20;;
44214;SDS011;29884;47.450;19.124;2022-09-02T03:50:38;1.83;;;0.20;;
44214;SDS011;29884;47.450;19.124;2022-09-02T03:53:06;0.70;;;0.20;;
44214;SDS011;29884;47.450;19.124;2022-09-02T03:55:32;2.92;;;0.20;;
44214;SDS011;29884;47.450;19.124;2022-09-02T03:58:00;0.75;;;0.20;;
44214;SDS011;29884;47.450;19.124;2022-09-02T04:00:25;0.68;;;0.20;;
44214;SDS011;29884;47.450;19.124;2022-09-02T04:02:57;1.45;;;0.30;;
44214;SDS011;29884;47.450;19.124;2022-09-02T04:05:25;0.73;;;0.20;;
44214;SDS011;29884;47.450;19.124;2022-09-02T04:07:51;0.82;;;0.20;;
44214;SDS011;29884;47.450;19.124;2022-09-02T04:10:17;0.38;;;0.20;;
44214;SDS011;29884;47.450;19.124;2022-09-02T04:12:45;1.00;;;0.20;;
44214;SDS011;29884;47.450;19.124;2022-09-02T04:15:10;0.30;;;0.20;;
44214;SDS011;29884;47.450;19.124;2022-09-02T04:17:38;3.30;;;0.20;;
44214;SDS011;29884;47.450;19.124;2022-09-02T04:20:04;0.73;;;0.20;;
44214;SDS011;29884;47.450;19.124;2022-09-02T04:22:32;1.23;;;0.22;;
44214;SDS011;29884;47.450;19.124;2022-09-02T04:24:58;3.83;;;0.20;;
44214;SDS011;29884;47.450;19.124;2022-09-02T04:27:24;1.75;;;0.20;;
44214;SDS011;29884;47.450;19.124;2022-09-02T04:29:50;0.43;;;0.20;;
44214;SDS011;29884;47.450;19.124;2022-09-02T04:32:16;0.82;;;0.22;;
44214;SDS011;29884;47.450;19.124;2022-09-02T04:34:42;2.92;;;0.20;;
44214;SDS011;29884;47.450;19.124;2022-09-02T04:37:07;1.75;;;0.20;;
44214;SDS011;29884;47.450;19.124;2022-09-02T04:39:33;2.55;;;0.20;;
44214;SDS011;29884;47.450;19.124;2022-09-02T04:41:59;1.27;;;0.28;;
44214;SDS011;29884;47.450;19.124;2022-09-02T04:44:25;3.13;;;0.20;;
44214;SDS011;29884;47.450;19.124;2022-09-02T04:46:51;1.38;;;0.30;;
44214;SDS011;29884;47.450;19.124;2022-09-02T04:49:17;0.50;;;0.20;;
44214;SDS011;29884;47.450;19.124;2022-09-02T04:51:43;0.90;;;0.20;;
44214;SDS011;29884;47.450;19.124;2022-09-02T04:54:09;0.45;;;0.15;;
44214;SDS011;29884;47.450;19.124;2022-09-02T04:56:35;0.60;;;0.20;;
44214;SDS011;29884;47.450;19.124;2022-09-02T04:59:02;0.25;;;0.15;;
44214;SDS011;29884;47.450;19.124;2022-09-02T05:01:29;0.38;;;0.20;;
44214;SDS011;29884;47.450;19.124;2022-09-02T05:03:57;1.10;;;0.20;;
44214;SDS011;29884;47.450;19.124;2022-09-02T05:06:24;0.85;;;0.30;;
44214;SDS011;29884;47.450;19.124;2022-09-02T05:08:51;0.85;;;0.68;;
44214;SDS011;29884;47.450;19.124;2022-09-02T05:11:19;0.30;;;0.20;;
44214;SDS011;29884;47.450;19.124;2022-09-02T05:13:47;1.60;;;0.28;;
44214;SDS011;29884;47.450;19.124;2022-09-02T05:16:20;2.42;;;0.30;;
44214;SDS011;29884;47.450;19.124;2022-09-02T05:18:51;1.27;;;0.20;;
44214;SDS011;29884;47.450;19.124;2022-09-02T05:21:18;0.30;;;0.20;;
44214;SDS011;29884;47.450;19.124;2022-09-02T05:23:44;0.65;;;0.20;;
44214;SDS011;29884;47.450;19.124;2022-09-02T05:26:10;0.90;;;0.20;;
44214;SDS011;29884;47.450;19.124;2022-09-02T05:28:37;1.85;;;0.20;;
44214;SDS011;29884;47.450;19.124;2022-09-02T05:31:05;0.90;;;0.28;;
44214;SDS011;29884;47.450;19.124;2022-09-02T05:33:35;1.88;;;0.22;;
44214;SDS011;29884;47.450;19.124;2022-09-02T05:36:04;0.75;;;0.20;;
44214;SDS011;29884;47.450;19.124;2022-09-02T05:38:30;1.75;;;0.20;;
44214;SDS011;29884;47.450;19.124;2022-09-02T05:40:56;2.10;;;0.20;;
44214;SDS011;29884;47.450;19.124;2022-09-02T05:43:23;0.75;;;0.20;;
44214;SDS011;29884;47.450;19.124;2022-09-02T05:45:49;2.85;;;0.20;;
44214;SDS011;29884;47.450;19.124;2022-09-02T05:48:15;1.30;;;0.20;;
44214;SDS011;29884;47.450;19.124;2022-09-02T05:51:02;0.95;;;0.20;;
44214;SDS011;29884;47.450;19.124;2022-09-02T05:53:29;3.45;;;0.40;;
44214;SDS011;29884;47.450;19.124;2022-09-02T05:55:55;0.50;;;0.20;;
44214;SDS011;29884;47.450;19.124;2022-09-02T05:58:22;1.30;;;0.20;;
44214;SDS011;29884;47.450;19.124;2022-09-02T06:00:47;2.17;;;0.30;;
44214;SDS011;29884;47.450;19.124;2022-09-02T06:03:13;0.70;;;0.30;;
44214;SDS011;29884;47.450;19.124;2022-09-02T06:05:51;0.60;;;0.20;;
44214;SDS011;29884;47.450;19.124;2022-09-02T06:08:21;1.23;;;0.20;;
44214;SDS011;29884;47.450;19.124;2022-09-02T06:10:47;0.45;;;0.20;;
44214;SDS011;29884;47.450;19.124;2022-09-02T06:13:13;1.65;;;0.30;;
44214;SDS011;29884;47.450;19.124;2022-09-02T06:15:40;0.80;;;0.20;;
44214;SDS011;29884;47.450;19.124;2022-09-02T06:18:08;1.10;;;0.17;;
44214;SDS011;29884;47.450;19.124;2022-09-02T06:20:38;0.45;;;0.20;;
44214;SDS011;29884;47.450;19.124;2022-09-02T06:23:04;0.63;;;0.20;;
44214;SDS011;29884;47.450;19.124;2022-09-02T06:25:30;1.48;;;0.20;;
44214;SDS011;29884;47.450;19.124;2022-09-02T06:27:56;0.80;;;0.20;;
44214;SDS011;29884;47.450;19.124;2022-09-02T06:30:21;0.50;;;0.20;;
44214;SDS011;29884;47.450;19.124;2022-09-02T06:32:47;1.23;;;0.40;;
44214;SDS011;29884;47.450;19.124;2022-09-02T06:35:13;2.15;;;0.20;;
44214;SDS011;29884;47.450;19.124;2022-09-02T06:37:39;0.77;;;0.20;;
44214;SDS011;29884;47.450;19.124;2022-09-02T06:40:06;1.65;;;0.20;;
44214;SDS011;29884;47.450;19.124;2022-09-02T06:42:32;0.30;;;0.10;;
44214;SDS011;29884;47.450;19.124;2022-09-02T06:44:58;0.65;;;0.17;;
44214;SDS011;29884;47.450;19.124;2022-09-02T06:47:23;0.40;;;0.10;;
44214;SDS011;29884;47.450;19.124;2022-09-02T06:49:49;0.43;;;0.10;;
44214;SDS011;29884;47.450;19.124;2022-09-02T06:52:15;1.05;;;0.20;;
44214;SDS011;29884;47.450;19.124;2022-09-02T06:54:41;1.35;;;0.20;;
44214;SDS011;29884;47.450;19.124;2022-09-02T06:57:06;0.50;;;0.20;;
44214;SDS011;29884;47.450;19.124;2022-09-02T06:59:32;0.40;;;0.20;;
44214;SDS011;29884;47.450;19.124;2022-09-02T07:01:58;0.28;;;0.20;;
44214;SDS011;29884;47.450;19.124;2022-09-02T07:04:23;1.33;;;0.30;;
44214;SDS011;29884;47.450;19.124;2022-09-02T07:07:08;0.65;;;0.20;;
44214;SDS011;29884;47.450;19.124;2022-09-02T07:09:35;0.47;;;0.20;;
44214;SDS011;29884;47.450;19.124;2022-09-02T07:12:02;0.55;;;0.20;;
44214;SDS011;29884;47.450;19.124;2022-09-02T07:14:28;1.83;;;0.20;;
44214;SDS011;29884;47.450;19.124;2022-09-02T07:16:54;0.88;;;0.20;;
44214;SDS011;29884;47.450;19.124;2022-09-02T07:19:21;0.40;;;0.15;;
44214;SDS011;29884;47.450;19.124;2022-09-02T07:21:48;0.52;;;0.20;;
44214;SDS011;29884;47.450;19.124;2022-09-02T07:24:14;0.93;;;0.20;;
44214;SDS011;29884;47.450;19.124;2022-09-02T07:26:41;1.13;;;0.30;;
44214;SDS011;29884;47.450;19.124;2022-09-02T07:29:07;1.63;;;0.30;;
44214;SDS011;29884;47.450;19.124;2022-09-02T07:31:34;0.38;;;0.20;;
44214;SDS011;29884;47.450;19.124;2022-09-02T07:34:01;0.60;;;0.20;;
44214;SDS011;29884;47.450;19.124;2022-09-02T07:36:30;1.20;;;0.30;;
44214;SDS011;29884;47.450;19.124;2022-09-02T07:38:56;0.80;;;0.30;;
44214;SDS011;29884;47.450;19.124;2022-09-02T07:41:22;0.40;;;0.20;;
44214;SDS011;29884;47.450;19.124;2022-09-02T07:43:48;1.70;;;0.20;;
44214;SDS011;29884;47.450;19.124;2022-09-02T07:46:14;0.65;;;0.30;;
44214;SDS011;29884;47.450;19.124;2022-09-02T07:48:40;1.35;;;0.30;;
44214;SDS011;29884;47.450;19.124;2022-09-02T07:51:07;2.50;;;0.30;;
44214;SDS011;29884;47.450;19.124;2022-09-02T07:53:33;0.50;;;0.30;;
44214;SDS011;29884;47.450;19.124;2022-09-02T07:55:59;1.80;;;0.30;;
44214;SDS011;29884;47.450;19.124;2022-09-02T07:58:25;2.38;;;0.30;;
44214;SDS011;29884;47.450;19.124;2022-09-02T08:00:52;0.80;;;0.20;;
44214;SDS011;29884;47.450;19.124;2022-09-02T08:03:21;2.22;;;0.30;;
44214;SDS011;29884;47.450;19.124;2022-09-02T08:05:48;0.35;;;0.22;;
44214;SDS011;29884;47.450;19.124;2022-09-02T08:08:14;1.15;;;0.32;;
44214;SDS011;29884;47.450;19.124;2022-09-02T08:10:44;0.80;;;0.30;;
44214;SDS011;29884;47.450;19.124;2022-09-02T08:13:11;0.40;;;0.20;;
44214;SDS011;29884;47.450;19.124;2022-09-02T08:15:37;0.65;;;0.20;;
44214;SDS011;29884;47.450;19.124;2022-09-02T08:18:03;0.52;;;0.20;;
44214;SDS011;29884;47.450;19.124;2022-09-02T08:20:30;0.55;;;0.20;;
44214;SDS011;29884;47.450;19.124;2022-09-02T08:22:56;1.00;;;0.20;;
44214;SDS011;29884;47.450;19.124;2022-09-02T08:25:22;1.83;;;0.30;;
44214;SDS011;29884;47.450;19.124;2022-09-02T08:27:48;0.63;;;0.30;;
44214;SDS011;29884;47.450;19.124;2022-09-02T08:30:14;1.02;;;0.30;;
44214;SDS011;29884;47.450;19.124;2022-09-02T08:32:40;1.23;;;0.35;;
44214;SDS011;29884;47.450;19.124;2022-09-02T08:35:07;2.05;;;0.30;;
44214;SDS011;29884;47.450;19.124;2022-09-02T08:37:34;0.50;;;0.30;;
44214;SDS011;29884;47.450;19.124;2022-09-02T08:40:04;2.58;;;0.30;;
44214;SDS011;29884;47.450;19.124;2022-09-02T08:42:34;0.28;;;0.20;;
44214;SDS011;29884;47.450;19.124;2022-09-02T08:45:13;0.70;;;0.40;;
44214;SDS011;29884;47.450;19.124;2022-09-02T08:47:48;2.63;;;0.30;;
44214;SDS011;29884;47.450;19.124;2022-09-02T08:50:22;1.67;;;0.28;;
44214;SDS011;29884;47.450;19.124;2022-09-02T08:55:18;1.40;;;0.32;;
44214;SDS011;29884;47.450;19.124;2022-09-02T08:57:52;1.05;;;0.22;;
44214;SDS011;29884;47.450;19.124;2022-09-02T09:00:20;1.63;;;0.30;;
44214;SDS011;29884;47.450;19.124;2022-09-02T09:03:03;0.45;;;0.30;;
44214;SDS011;29884;47.450;19.124;2022-09-02T09:11:17;0.75;;;0.40;;
44214;SDS011;29884;47.450;19.124;2022-09-02T09:13:49;0.88;;;0.30;;
44214;SDS011;29884;47.450;19.124;2022-09-02T09:22:11;1.40;;;0.22;;
44214;SDS011;29884;47.450;19.124;2022-09-02T09:24:39;0.63;;;0.40;;
44214;SDS011;29884;47.450;19.124;2022-09-02T09:27:13;0.95;;;0.40;;
44214;SDS011;29884;47.450;19.124;2022-09-02T09:29:41;0.98;;;0.30;;
44214;SDS011;29884;47.450;19.124;2022-09-02T09:35:14;1.50;;;0.38;;
44214;SDS011;29884;47.450;19.124;2022-09-02T09:37:45;0.70;;;0.32;;
44214;SDS011;29884;47.450;19.124;2022-09-02T09:45:29;0.65;;;0.30;;
44214;SDS011;29884;47.450;19.124;2022-09-02T09:48:24;0.95;;;0.30;;
44214;SDS011;29884;47.450;19.124;2022-09-02T09:53:22;0.65;;;0.20;;
44214;SDS011;29884;47.450;19.124;2022-09-02T09:58:21;2.25;;;0.40;;
44214;SDS011;29884;47.450;19.124;2022-09-02T10:00:54;0.73;;;0.30;;
44214;SDS011;29884;47.450;19.124;2022-09-02T10:03:27;0.55;;;0.22;;
44214;SDS011;29884;47.450;19.124;2022-09-02T10:05:57;0.65;;;0.30;;
44214;SDS011;29884;47.450;19.124;2022-09-02T10:08:49;0.63;;;0.30;;
44214;SDS011;29884;47.450;19.124;2022-09-02T10:11:32;1.17;;;0.30;;
44214;SDS011;29884;47.450;19.124;2022-09-02T10:14:00;0.88;;;0.30;;
44214;SDS011;29884;47.450;19.124;2022-09-02T10:25:22;0.77;;;0.30;;
44214;SDS011;29884;47.450;19.124;2022-09-02T10:33:35;3.85;;;0.43;;
44214;SDS011;29884;47.450;19.124;2022-09-02T10:39:10;1.75;;;0.40;;
44214;SDS011;29884;47.450;19.124;2022-09-02T10:42:08;2.70;;;0.40;;
44214;SDS011;29884;47.450;19.124;2022-09-02T10:44:59;1.00;;;0.40;;
44214;SDS011;29884;47.450;19.124;2022-09-02T10:47:35;1.52;;;0.45;;
44214;SDS011;29884;47.450;19.124;2022-09-02T10:52:37;2.47;;;0.50;;
44214;SDS011;29884;47.450;19.124;2022-09-02T11:01:19;2.05;;;0.40;;
44214;SDS011;29884;47.450;19.124;2022-09-02T11:06:25;1.30;;;0.47;;
44214;SDS011;29884;47.450;19.124;2022-09-02T11:09:00;1.02;;;0.40;;
44214;SDS011;29884;47.450;19.124;2022-09-02T11:11:31;2.28;;;0.40;;
44214;SDS011;29884;47.450;19.124;2022-09-02T11:19:27;1.95;;;0.40;;
44214;SDS011;29884;47.450;19.124;2022-09-02T11:22:00;2.33;;;0.40;;
44214;SDS011;29884;47.450;19.124;2022-09-02T11:25:04;2.17;;;0.50;;
44214;SDS011;29884;47.450;19.124;2022-09-02T11:30:18;1.67;;;0.40;;
44214;SDS011;29884;47.450;19.124;2022-09-02T11:35:35;3.47;;;0.57;;
44214;SDS011;29884;47.450;19.124;2022-09-02T11:40:32;2.28;;;0.40;;
44214;SDS011;29884;47.450;19.124;2022-09-02T11:54:04;1.13;;;0.40;;
44214;SDS011;29884;47.450;19.124;2022-09-02T11:56:36;2.42;;;0.45;;
44214;SDS011;29884;47.450;19.124;2022-09-02T11:59:07;0.70;;;0.40;;
44214;SDS011;29884;47.450;19.124;2022-09-02T12:02:04;0.82;;;0.40;;
44214;SDS011;29884;47.450;19.124;2022-09-02T12:04:30;2.45;;;0.45;;
44214;SDS011;29884;47.450;19.124;2022-09-02T12:09:46;2.05;;;0.50;;
44214;SDS011;29884;47.450;19.124;2022-09-02T12:15:02;2.95;;;0.50;;
44214;SDS011;29884;47.450;19.124;2022-09-02T12:18:12;3.70;;;0.40;;
44214;SDS011;29884;47.450;19.124;2022-09-02T12:23:03;1.40;;;0.40;;
44214;SDS011;29884;47.450;19.124;2022-09-02T12:25:32;1.10;;;0.60;;
44214;SDS011;29884;47.450;19.124;2022-09-02T12:28:15;1.85;;;0.40;;
44214;SDS011;29884;47.450;19.124;2022-09-02T12:31:35;1.88;;;0.43;;
44214;SDS011;29884;47.450;19.124;2022-09-02T12:36:43;1.27;;;0.43;;
44214;SDS011;29884;47.450;19.124;2022-09-02T12:44:33;6.90;;;0.57;;
44214;SDS011;29884;47.450;19.124;2022-09-02T12:52:08;1.98;;;0.43;;
44214;SDS011;29884;47.450;19.124;2022-09-02T12:54:47;1.40;;;0.50;;
44214;SDS011;29884;47.450;19.124;2022-09-02T12:57:14;2.45;;;0.50;;
44214;SDS011;29884;47.450;19.124;2022-09-02T12:59:42;1.88;;;0.43;;
44214;SDS011;29884;47.450;19.124;2022-09-02T13:10:41;1.02;;;0.40;;
44214;SDS011;29884;47.450;19.124;2022-09-02T13:22:39;1.63;;;0.40;;
44214;SDS011;29884;47.450;19.124;2022-09-02T13:25:15;0.95;;;0.50;;
44214;SDS011;29884;47.450;19.124;2022-09-02T13:31:10;0.90;;;0.50;;
44214;SDS011;29884;47.450;19.124;2022-09-02T13:33:42;1.70;;;0.50;;
44214;SDS011;29884;47.450;19.124;2022-09-02T13:36:08;2.22;;;0.47;;
44214;SDS011;29884;47.450;19.124;2022-09-02T13:38:34;1.70;;;0.40;;
44214;SDS011;29884;47.450;19.124;2022-09-02T13:41:00;1.30;;;0.50;;
44214;SDS011;29884;47.450;19.124;2022-09-02T13:43:26;1.90;;;0.50;;
44214;SDS011;29884;47.450;19.124;2022-09-02T13:45:53;1.88;;;0.60;;
44214;SDS011;29884;47.450;19.124;2022-09-02T13:48:25;0.98;;;0.50;;
44214;SDS011;29884;47.450;19.124;2022-09-02T13:50:55;1.98;;;0.43;;
44214;SDS011;29884;47.450;19.124;2022-09-02T13:55:58;0.98;;;0.50;;
44214;SDS011;29884;47.450;19.124;2022-09-02T14:00:55;0.98;;;0.60;;
44214;SDS011;29884;47.450;19.124;2022-09-02T14:03:23;11.80;;;1.02;;
44214;SDS011;29884;47.450;19.124;2022-09-02T14:05:49;17.85;;;1.80;;
44214;SDS011;29884;47.450;19.124;2022-09-02T14:08:18;2.90;;;0.50;;
44214;SDS011;29884;47.450;19.124;2022-09-02T14:10:51;1.92;;;0.50;;
44214;SDS011;29884;47.450;19.124;2022-09-02T14:13:18;0.63;;;0.40;;
44214;SDS011;29884;47.450;19.124;2022-09-02T14:15:45;1.50;;;0.50;;
44214;SDS011;29884;47.450;19.124;2022-09-02T14:23:19;0.70;;;0.40;;
44214;SDS011;29884;47.450;19.124;2022-09-02T14:25:49;4.03;;;0.60;;
44214;SDS011;29884;47.450;19.124;2022-09-02T14:28:18;1.27;;;0.47;;
44214;SDS011;29884;47.450;19.124;2022-09-02T14:30:58;0.80;;;0.50;;
44214;SDS011;29884;47.450;19.124;2022-09-02T14:43:52;1.33;;;0.68;;
44214;SDS011;29884;47.450;19.124;2022-09-02T14:49:03;1.25;;;0.70;;
44214;SDS011;29884;47.450;19.124;2022-09-02T14:51:32;2.55;;;0.60;;
44214;SDS011;29884;47.450;19.124;2022-09-02T14:53:59;3.40;;;0.80;;
44214;SDS011;29884;47.450;19.124;2022-09-02T14:56:58;3.08;;;0.80;;
44214;SDS011;29884;47.450;19.124;2022-09-02T14:59:17;1.70;;;0.70;;
44214;SDS011;29884;47.450;19.124;2022-09-02T15:01:48;1.92;;;0.70;;
44214;SDS011;29884;47.450;19.124;2022-09-02T15:04:15;1.63;;;1.00;;
44214;SDS011;29884;47.450;19.124;2022-09-02T15:06:43;2.38;;;0.88;;
44214;SDS011;29884;47.450;19.124;2022-09-02T15:09:09;2.45;;;0.73;;
44214;SDS011;29884;47.450;19.124;2022-09-02T15:11:36;1.63;;;0.80;;
44214;SDS011;29884;47.450;19.124;2022-09-02T15:14:03;4.18;;;0.90;;
44214;SDS011;29884;47.450;19.124;2022-09-02T15:16:29;2.95;;;0.80;;
44214;SDS011;29884;47.450;19.124;2022-09-02T15:18:55;1.23;;;0.70;;
44214;SDS011;29884;47.450;19.124;2022-09-02T15:21:24;2.55;;;0.82;;
44214;SDS011;29884;47.450;19.124;2022-09-02T15:23:50;4.03;;;0.90;;
44214;SDS011;29884;47.450;19.124;2022-09-02T15:26:15;1.77;;;0.82;;
44214;SDS011;29884;47.450;19.124;2022-09-02T15:28:41;1.83;;;0.80;;
44214;SDS011;29884;47.450;19.124;2022-09-02T15:31:09;2.38;;;0.73;;
44214;SDS011;29884;47.450;19.124;2022-09-02T15:33:35;1.95;;;0.70;;
44214;SDS011;29884;47.450;19.124;2022-09-02T15:36:08;2.28;;;0.80;;
44214;SDS011;29884;47.450;19.124;2022-09-02T15:38:36;1.50;;;0.70;;
44214;SDS011;29884;47.450;19.124;2022-09-02T15:41:21;1.67;;;0.65;;
44214;SDS011;29884;47.450;19.124;2022-09-02T15:43:49;4.57;;;0.80;;
44214;SDS011;29884;47.450;19.124;2022-09-02T15:48:46;1.70;;;0.70;;
44214;SDS011;29884;47.450;19.124;2022-09-02T15:51:13;1.40;;;0.70;;
44214;SDS011;29884;47.450;19.124;2022-09-02T15:53:40;1.08;;;0.63;;
44214;SDS011;29884;47.450;19.124;2022-09-02T15:56:13;1.73;;;0.70;;
44214;SDS011;29884;47.450;19.124;2022-09-02T15:58:40;1.48;;;0.65;;
44214;SDS011;29884;47.450;19.124;2022-09-02T16:01:05;2.17;;;0.70;;
44214;SDS011;29884;47.450;19.124;2022-09-02T16:03:31;2.60;;;0.80;;
44214;SDS011;29884;47.450;19.124;2022-09-02T16:06:00;2.45;;;0.70;;
44214;SDS011;29884;47.450;19.124;2022-09-02T16:08:26;3.58;;;0.80;;
44214;SDS011;29884;47.450;19.124;2022-09-02T16:10:52;2.15;;;0.80;;
44214;SDS011;29884;47.450;19.124;2022-09-02T16:13:18;3.15;;;0.60;;
44214;SDS011;29884;47.450;19.124;2022-09-02T16:15:45;1.77;;;0.70;;
44214;SDS011;29884;47.450;19.124;2022-09-02T16:18:10;2.20;;;0.70;;
44214;SDS011;29884;47.450;19.124;2022-09-02T16:20:36;1.45;;;0.75;;
44214;SDS011;29884;47.450;19.124;2022-09-02T16:23:02;2.45;;;0.70;;
44214;SDS011;29884;47.450;19.124;2022-09-02T16:25:27;2.85;;;0.80;;
44214;SDS011;29884;47.450;19.124;2022-09-02T16:27:53;1.70;;;0.70;;
44214;SDS011;29884;47.450;19.124;2022-09-02T16:30:20;1.85;;;0.73;;
44214;SDS011;29884;47.450;19.124;2022-09-02T16:32:46;1.75;;;0.80;;
44214;SDS011;29884;47.450;19.124;2022-09-02T16:35:14;1.52;;;0.70;;
44214;SDS011;29884;47.450;19.124;2022-09-02T16:37:40;2.55;;;0.73;;
44214;SDS011;29884;47.450;19.124;2022-09-02T16:40:06;1.77;;;0.70;;
44214;SDS011;29884;47.450;19.124;2022-09-02T16:42:32;2.03;;;0.90;;
44214;SDS011;29884;47.450;19.124;2022-09-02T16:44:58;1.35;;;0.70;;
44214;SDS011;29884;47.450;19.124;2022-09-02T16:47:24;1.45;;;0.70;;
44214;SDS011;29884;47.450;19.124;2022-09-02T16:49:50;3.28;;;1.48;;
44214;SDS011;29884;47.450;19.124;2022-09-02T16:52:16;1.80;;;0.70;;
44214;SDS011;29884;47.450;19.124;2022-09-02T16:54:42;2.90;;;0.90;;
44214;SDS011;29884;47.450;19.124;2022-09-02T16:57:08;1.52;;;0.60;;
44214;SDS011;29884;47.450;19.124;2022-09-02T16:59:34;1.35;;;0.65;;
44214;SDS011;29884;47.450;19.124;2022-09-02T17:01:59;1.60;;;0.70;;
44214;SDS011;29884;47.450;19.124;2022-09-02T17:04:25;2.40;;;0.60;;
44214;SDS011;29884;47.450;19.124;2022-09-02T17:06:51;2.55;;;0.80;;
44214;SDS011;29884;47.450;19.124;2022-09-02T17:09:17;2.25;;;0.60;;
44214;SDS011;29884;47.450;19.124;2022-09-02T17:11:43;1.98;;;0.75;;
44214;SDS011;29884;47.450;19.124;2022-09-02T17:14:13;1.40;;;0.73;;